Time;durP1;ratioP1;P1;durP2;ratioP2;P2;SDS_P1;SDS_P2;PMS_P1;PMS_P2;Temp;Humidity;BMP_temperature;BMP_pressure;BME280_temperature;BME280_humidity;BME280_pressure;Samples;Min_cycle;Max_cycle;Signal;HPM_P1;HPM_P2
2021/03/30 00:10:36;;;;;;;53.33;30.95;;;;;;;10.10;100.00;101527.05;10595843;81;99116;-80
2021/03/30 00:25:41;;;;;;;51.05;28.65;;;;;;;10.07;100.00;101511.98;10614371;81;99083;-80
2021/03/30 00:40:45;;;;;;;42.25;24.52;;;;;;;10.03;100.00;101498.27;10631146;81;99264;-81
2021/03/30 00:55:50;;;;;;;47.93;25.68;;;;;;;10.12;100.00;101485.86;10633522;82;98994;-80
2021/03/30 01:11:00;;;;;;;39.87;24.57;;;;;;;10.16;100.00;101497.81;10617569;81;99126;-80
2021/03/30 01:26:17;;;;;;;40.73;23.43;;;;;;;10.15;100.00;101500.55;10620789;80;99011;-80
2021/03/30 01:41:24;;;;;;;39.80;22.55;;;;;;;10.13;100.00;101498.00;10641384;81;99009;-80
2021/03/30 01:56:30;;;;;;;38.98;21.00;;;;;;;10.17;100.00;101501.27;10604444;82;99030;-80
2021/03/30 02:11:42;;;;;;;42.30;23.85;;;;;;;10.24;100.00;101496.44;10598388;81;99188;-79
2021/03/30 02:26:47;;;;;;;36.73;21.12;;;;;;;10.27;100.00;101504.95;10560473;82;99052;-80
2021/03/30 02:41:52;;;;;;;47.03;28.27;;;;;;;10.23;100.00;101505.28;10620232;82;99067;-78
2021/03/30 02:57:01;;;;;;;53.43;29.63;;;;;;;10.21;100.00;101512.39;10639900;82;99200;-78
2021/03/30 03:12:10;;;;;;;47.67;24.90;;;;;;;10.22;100.00;101518.84;10606014;81;99165;-77
2021/03/30 03:27:15;;;;;;;35.85;19.27;;;;;;;10.30;100.00;101522.27;10591022;81;98960;-77
2021/03/30 03:42:19;;;;;;;31.77;17.17;;;;;;;10.37;100.00;101530.59;10648304;82;99155;-77
2021/03/30 03:57:27;;;;;;;42.33;20.20;;;;;;;10.36;100.00;101535.01;10661753;82;99035;-78
2021/03/30 04:12:34;;;;;;;29.55;17.55;;;;;;;10.40;100.00;101543.04;10612158;81;99222;-77
2021/03/30 04:27:38;;;;;;;47.70;28.00;;;;;;;10.39;100.00;101555.78;10632141;81;99115;-77
2021/03/30 04:42:42;;;;;;;42.62;26.52;;;;;;;10.23;100.00;101562.49;10622244;81;99101;-78
2021/03/30 04:57:49;;;;;;;49.33;26.17;;;;;;;10.21;100.00;101567.47;10600839;82;99329;-78
2021/03/30 05:12:54;;;;;;;36.95;21.05;;;;;;;10.18;100.00;101575.55;10653572;82;99124;-79
2021/03/30 05:27:58;;;;;;;37.42;21.23;;;;;;;10.18;100.00;101575.06;10623754;81;99063;-78
2021/03/30 05:43:02;;;;;;;40.67;22.27;;;;;;;10.25;100.00;101592.55;10668504;82;99114;-78
2021/03/30 05:58:09;;;;;;;45.63;23.07;;;;;;;10.26;100.00;101607.34;10655738;82;99017;-78
2021/03/30 06:13:13;;;;;;;112.95;62.78;;;;;;;10.32;100.00;101614.34;10663337;82;99138;-77
2021/03/30 06:28:20;;;;;;;46.73;29.57;;;;;;;10.37;100.00;101620.61;10650532;82;99151;-78
2021/03/30 06:58:59;;;;;;;84.63;36.90;;;;;;;10.76;100.00;101643.00;10644718;82;99114;-78
2021/03/30 07:14:04;;;;;;;49.70;28.02;;;;;;;11.04;100.00;101647.20;10681889;81;99041;-78
2021/03/30 07:29:12;;;;;;;41.98;24.20;;;;;;;11.26;100.00;101653.14;10708961;81;99016;-78
2021/03/30 07:44:17;;;;;;;31.17;20.90;;;;;;;11.32;100.00;101662.38;10703883;81;99094;-79
2021/03/30 07:59:47;;;;;;;40.90;22.98;;;;;;;11.24;100.00;101676.03;10466730;81;99121;-79
2021/03/30 08:14:52;;;;;;;137.43;74.60;;;;;;;11.30;100.00;101686.61;10417361;83;99153;-79
2021/03/30 08:29:56;;;;;;;39.38;23.22;;;;;;;11.72;100.00;101692.91;10641258;82;99240;-84
2021/03/30 08:45:11;;;;;;;42.13;25.23;;;;;;;11.82;100.00;101689.99;10652199;82;99363;-84
2021/03/30 09:00:28;;;;;;;28.00;16.97;;;;;;;12.04;100.00;101696.40;10641313;82;99114;-84
2021/03/30 09:15:40;;;;;;;41.02;30.27;;;;;;;12.02;100.00;101712.75;10582820;82;99021;-83
2021/03/30 09:31:13;;;;;;;20.30;14.85;;;;;;;11.91;100.00;101705.60;10596402;82;99018;-82
2021/03/30 09:46:27;;;;;;;45.30;24.57;;;;;;;12.48;100.00;101705.45;10647007;82;99071;-81
2021/03/30 10:01:39;;;;;;;26.80;13.00;;;;;;;12.64;100.00;101690.22;10578575;80;99047;-86
2021/03/30 10:16:44;;;;;;;39.15;22.35;;;;;;;12.78;100.00;101689.66;10668612;82;99153;-83
2021/03/30 10:31:58;;;;;;;21.00;14.45;;;;;;;12.82;100.00;101684.52;10643520;81;99220;-89
2021/03/30 10:47:15;;;;;;;18.55;12.13;;;;;;;12.86;100.00;101682.02;10647447;82;99482;-82
2021/03/30 11:02:21;;;;;;;18.57;11.10;;;;;;;12.72;100.00;101672.54;10636081;81;99003;-82
2021/03/30 11:17:25;;;;;;;19.75;11.95;;;;;;;13.11;100.00;101661.70;10628457;81;99079;-81
2021/03/30 11:32:39;;;;;;;42.63;22.53;;;;;;;13.71;100.00;101663.66;10645286;81;99048;-82
2021/03/30 11:47:43;;;;;;;16.65;12.23;;;;;;;14.04;100.00;101657.09;10644887;82;99122;-85
2021/03/30 12:02:49;;;;;;;19.02;11.93;;;;;;;14.10;100.00;101656.11;10642669;82;98990;-86
2021/03/30 12:17:54;;;;;;;17.32;10.93;;;;;;;14.35;100.00;101638.76;10364214;84;99130;-84
2021/03/30 12:32:59;;;;;;;29.20;15.75;;;;;;;14.72;100.00;101624.66;10403840;84;99137;-85
2021/03/30 12:48:04;;;;;;;24.35;11.90;;;;;;;15.00;100.00;101622.30;10657203;81;99802;-86
2021/03/30 13:03:08;;;;;;;21.65;13.40;;;;;;;15.13;100.00;101600.44;10633795;82;99099;-88
2021/03/30 13:18:13;;;;;;;25.10;14.47;;;;;;;15.21;100.00;101602.92;10655432;81;99891;-88
2021/03/30 13:33:18;;;;;;;19.60;12.25;;;;;;;15.73;100.00;101571.88;10634705;82;99076;-87
2021/03/30 13:48:22;;;;;;;49.55;26.15;;;;;;;17.37;100.00;101562.05;10404843;82;99078;-88
2021/03/30 14:03:26;;;;;;;16.32;9.70;;;;;;;18.17;100.00;101541.90;10399580;80;99204;-72
2021/03/30 14:18:42;;;;;;;14.73;8.80;;;;;;;22.01;98.27;101524.72;10252325;80;98901;-72
2021/03/30 14:33:42;;;;;;;16.40;12.35;;;;;;;25.59;67.84;101525.34;10519696;83;99025;-71
2021/03/30 15:04:12;;;;;;;20.45;12.23;;;;;;;21.18;86.86;101503.63;10418589;83;98467;-73
2021/03/30 15:19:18;;;;;;;14.38;9.25;;;;;;;25.17;76.26;101492.41;10447240;83;98811;-72
2021/03/30 15:34:22;;;;;;;14.47;9.05;;;;;;;25.44;68.01;101481.73;10366818;83;98646;-79
2021/03/30 15:49:26;;;;;;;30.57;21.12;;;;;;;22.47;76.63;101468.17;10397427;83;98680;-74
2021/03/30 16:04:31;;;;;;;20.08;13.08;;;;;;;21.73;83.59;101463.87;10369174;83;98834;-74
2021/03/30 16:19:35;;;;;;;23.35;15.40;;;;;;;19.08;94.60;101464.81;10373814;83;98828;-82
2021/03/30 16:34:40;;;;;;;22.73;16.73;;;;;;;21.20;90.05;101470.42;10360645;83;98843;-82
2021/03/30 16:49:46;;;;;;;15.60;12.20;;;;;;;20.24;88.01;101463.82;10360901;80;98835;-82
2021/03/30 17:04:50;;;;;;;20.43;13.77;;;;;;;18.42;98.68;101460.07;10373497;83;98844;-81
2021/03/30 17:19:55;;;;;;;61.13;37.10;;;;;;;17.46;100.00;101456.87;10314827;83;98826;-83
2021/03/30 17:34:59;;;;;;;37.00;21.77;;;;;;;16.76;100.00;101462.24;10235906;83;99430;-80
2021/03/30 17:50:04;;;;;;;47.08;25.00;;;;;;;16.22;100.00;101463.83;10224849;84;99030;-77
2021/03/30 18:05:12;;;;;;;64.70;33.25;;;;;;;15.82;100.00;101467.04;10218483;84;99118;-82
2021/03/30 18:20:18;;;;;;;52.83;29.73;;;;;;;15.45;100.00;101456.67;10241663;83;99092;-83
2021/03/30 18:35:23;;;;;;;138.52;70.30;;;;;;;15.10;100.00;101459.34;10335015;82;99679;-83
2021/03/30 18:50:27;;;;;;;76.77;36.28;;;;;;;14.91;100.00;101453.53;10342143;83;99235;-82
2021/03/30 19:05:32;;;;;;;120.70;51.35;;;;;;;14.78;100.00;101446.31;10350647;83;99651;-82
2021/03/30 19:20:37;;;;;;;105.40;53.03;;;;;;;14.64;100.00;101448.86;10374711;83;99240;-83
2021/03/30 19:35:44;;;;;;;67.27;32.30;;;;;;;14.24;100.00;101432.45;10387015;82;99218;-82
2021/03/30 19:50:48;;;;;;;59.48;29.20;;;;;;;14.02;100.00;101431.65;10379763;83;99118;-75
2021/03/30 20:05:54;;;;;;;125.80;57.90;;;;;;;13.59;100.00;101429.96;10381469;81;99042;-83
2021/03/30 20:20:58;;;;;;;74.53;37.53;;;;;;;13.14;100.00;101422.57;10392357;83;99302;-82
2021/03/30 20:36:04;;;;;;;47.55;27.02;;;;;;;13.11;100.00;101429.38;10402413;83;99359;-82
2021/03/30 20:51:13;;;;;;;69.33;37.37;;;;;;;13.25;100.00;101426.11;10380923;83;99066;-82
2021/03/30 21:06:19;;;;;;;42.62;22.75;;;;;;;12.56;100.00;101424.08;10405654;83;99310;-83
2021/03/30 21:21:23;;;;;;;73.22;31.48;;;;;;;12.45;100.00;101409.13;10379308;83;99027;-83
2021/03/30 21:36:28;;;;;;;47.50;24.30;;;;;;;12.26;100.00;101406.25;10234676;85;99039;-83
2021/03/30 21:51:32;;;;;;;92.87;44.83;;;;;;;11.70;100.00;101412.23;10428369;82;99027;-83
2021/03/30 22:06:39;;;;;;;44.30;25.97;;;;;;;11.45;100.00;101409.63;10425416;83;99118;-83
2021/03/30 22:21:45;;;;;;;76.53;33.00;;;;;;;11.12;100.00;101399.82;10430919;83;99047;-82
2021/03/30 22:36:50;;;;;;;45.98;23.52;;;;;;;10.76;100.00;101398.91;10485035;83;99042;-83
2021/03/30 22:51:54;;;;;;;37.63;19.48;;;;;;;10.58;100.00;101394.47;10472117;83;99493;-82
2021/03/30 23:06:59;;;;;;;32.15;18.17;;;;;;;10.39;100.00;101404.95;10478827;83;99030;-83
2021/03/30 23:22:04;;;;;;;34.20;18.30;;;;;;;10.36;100.00;101395.98;10450054;83;99036;-83
2021/03/30 23:37:09;;;;;;;26.70;16.25;;;;;;;10.08;100.00;101407.04;10303411;84;99047;-83
2021/03/30 23:52:13;;;;;;;34.23;18.25;;;;;;;9.90;100.00;101409.59;10396183;83;99044;-81
